createdAt,value
2017-08-13T00:01:58.825Z,66.80
2017-08-13T00:04:26.341Z,66.70
2017-08-13T00:06:53.892Z,66.70
2017-08-13T00:09:21.416Z,67.10
2017-08-13T00:11:48.932Z,67.10
2017-08-13T00:14:17.235Z,67.80
2017-08-13T00:16:44.741Z,67.80
2017-08-13T00:19:12.271Z,67.50
2017-08-13T00:21:39.792Z,67.50
2017-08-13T00:24:08.101Z,67.50
2017-08-13T00:26:35.629Z,67.50
2017-08-13T00:29:03.932Z,68.40
2017-08-13T00:31:31.436Z,68.20
2017-08-13T00:33:59.067Z,68.30
2017-08-13T00:36:26.585Z,67.90
2017-08-13T00:38:54.884Z,67.90
2017-08-13T00:41:22.405Z,67.90
2017-08-13T00:43:49.941Z,68.30
2017-08-13T00:46:17.463Z,68.40
2017-08-13T00:48:45.001Z,68.50
2017-08-13T00:51:12.518Z,68.30
2017-08-13T00:53:40.028Z,68.30
2017-08-13T00:56:07.569Z,67.90
2017-08-13T00:58:35.100Z,68.20
2017-08-13T01:01:02.638Z,68.20
2017-08-13T01:03:30.157Z,68.60
2017-08-13T01:05:57.715Z,68.80
2017-08-13T01:08:25.244Z,69.30
2017-08-13T01:10:52.790Z,69.60
2017-08-13T01:13:20.317Z,68.90
2017-08-13T01:15:47.857Z,69.30
2017-08-13T01:18:15.394Z,69.40
2017-08-13T01:20:43.700Z,69.30
2017-08-13T01:23:11.217Z,69.30
2017-08-13T01:25:38.746Z,69.70
2017-08-13T01:28:06.294Z,69.00
2017-08-13T01:30:33.835Z,68.90
2017-08-13T01:33:01.368Z,68.80
2017-08-13T01:35:29.660Z,69.60
2017-08-13T01:37:57.213Z,69.50
2017-08-13T01:40:24.753Z,69.60
2017-08-13T01:42:53.060Z,69.90
2017-08-13T01:45:20.580Z,69.80
2017-08-13T01:47:48.125Z,69.40
2017-08-13T01:50:15.648Z,68.90
2017-08-13T01:52:43.165Z,69.00
2017-08-13T01:55:11.476Z,68.70
2017-08-13T01:57:38.992Z,69.20
2017-08-13T02:00:06.600Z,69.30
2017-08-13T02:02:34.118Z,69.40
2017-08-13T02:05:02.428Z,69.60
2017-08-13T02:07:29.952Z,69.50
2017-08-13T02:09:58.271Z,69.70
2017-08-13T02:12:25.793Z,69.70
2017-08-13T02:14:54.108Z,69.80
2017-08-13T02:17:21.632Z,69.70
2017-08-13T02:19:49.912Z,71.50
2017-08-13T02:22:18.227Z,72.00
2017-08-13T02:24:45.744Z,72.00
2017-08-13T02:27:13.287Z,71.90
2017-08-13T02:29:41.576Z,74.20
2017-08-13T02:32:09.876Z,74.00
2017-08-13T02:34:37.394Z,73.90
2017-08-13T02:37:04.937Z,74.30
2017-08-13T02:39:32.457Z,74.40
2017-08-13T02:41:59.992Z,74.50
2017-08-13T02:44:28.277Z,75.40
2017-08-13T02:46:55.824Z,75.30
2017-08-13T02:49:24.107Z,76.30
2017-08-13T02:51:52.385Z,76.40
2017-08-13T02:54:20.704Z,76.90
2017-08-13T02:56:48.227Z,76.90
2017-08-13T02:59:15.769Z,77.50
2017-08-13T03:01:44.053Z,78.80
2017-08-13T03:04:12.360Z,80.10
2017-08-13T03:06:39.877Z,80.00
2017-08-13T03:09:08.184Z,82.10
2017-08-13T03:11:35.710Z,81.90
2017-08-13T03:14:04.022Z,84.90
2017-08-13T03:16:31.547Z,84.20
2017-08-13T03:18:59.849Z,85.60
2017-08-13T03:21:27.365Z,85.60
2017-08-13T03:23:54.903Z,86.00
2017-08-13T03:26:22.933Z,85.90
2017-08-13T03:28:50.461Z,86.40
2017-08-13T03:31:18.002Z,86.90
2017-08-13T03:33:45.518Z,86.50
2017-08-13T03:36:13.076Z,86.30
2017-08-13T03:38:40.585Z,86.20
2017-08-13T03:41:08.120Z,87.20
2017-08-13T03:43:36.472Z,86.50
2017-08-13T03:46:04.011Z,86.60
2017-08-13T03:48:32.305Z,87.00
2017-08-13T03:50:59.840Z,87.00
2017-08-13T03:53:28.119Z,87.40
2017-08-13T03:55:56.424Z,88.30
2017-08-13T03:58:23.949Z,87.80
2017-08-13T04:00:51.495Z,88.10
2017-08-13T04:03:19.031Z,88.10
2017-08-13T04:05:46.567Z,88.30
2017-08-13T04:08:14.109Z,88.40
2017-08-13T04:10:41.677Z,88.20
2017-08-13T04:13:09.225Z,88.20
2017-08-13T04:15:36.745Z,87.90
2017-08-13T04:18:04.287Z,87.40
2017-08-13T04:20:31.805Z,87.70
2017-08-13T04:22:59.375Z,87.80
2017-08-13T04:25:26.894Z,87.60
2017-08-13T04:27:55.177Z,87.90
2017-08-13T04:30:23.491Z,88.00
2017-08-13T04:32:51.004Z,88.00
2017-08-13T04:35:18.573Z,87.60
2017-08-13T04:37:46.852Z,87.90
2017-08-13T04:40:14.394Z,87.90
2017-08-13T04:42:41.909Z,86.80
2017-08-13T04:45:09.460Z,87.30
2017-08-13T04:47:37.026Z,87.60
2017-08-13T04:50:04.597Z,86.80
2017-08-13T04:52:32.107Z,87.00
2017-08-13T04:55:00.412Z,86.70
2017-08-13T04:57:27.934Z,86.70
2017-08-13T04:59:55.622Z,86.50
2017-08-13T05:02:23.205Z,86.80
2017-08-13T05:04:50.733Z,85.60
2017-08-13T05:07:18.313Z,85.20
2017-08-13T05:09:45.904Z,85.90
2017-08-13T05:12:13.475Z,86.20
2017-08-13T05:14:41.064Z,85.80
2017-08-13T05:17:09.373Z,85.80
2017-08-13T05:19:36.908Z,85.80
2017-08-13T05:22:04.456Z,85.40
2017-08-13T05:24:31.969Z,85.50
2017-08-13T05:26:59.561Z,85.00
2017-08-13T05:29:27.880Z,84.60
2017-08-13T05:31:55.429Z,84.10
2017-08-13T05:34:22.973Z,85.10
2017-08-13T05:36:51.257Z,84.30
2017-08-13T05:39:18.875Z,84.20
2017-08-13T05:41:46.392Z,84.50
2017-08-13T05:44:13.943Z,84.40
2017-08-13T05:46:41.465Z,84.40
2017-08-13T05:49:09.010Z,84.30
2017-08-13T05:51:36.524Z,84.00
2017-08-13T05:54:04.069Z,84.00
2017-08-13T05:56:31.601Z,84.10
2017-08-13T05:58:59.168Z,83.40
2017-08-13T06:01:27.454Z,82.50
2017-08-13T06:03:55.775Z,83.30
2017-08-13T06:06:23.305Z,83.30
2017-08-13T06:08:50.849Z,81.50
2017-08-13T06:11:19.158Z,81.60
2017-08-13T06:13:46.677Z,82.20
2017-08-13T06:16:14.980Z,81.10
2017-08-13T06:18:42.501Z,81.10
2017-08-13T06:21:10.036Z,80.30
2017-08-13T06:23:37.551Z,81.00
2017-08-13T06:26:05.106Z,80.20
2017-08-13T06:28:32.623Z,80.10
2017-08-13T06:31:00.159Z,80.60
2017-08-13T06:33:27.686Z,79.90
2017-08-13T06:35:55.229Z,79.70
2017-08-13T06:38:22.773Z,79.70
2017-08-13T06:40:51.097Z,78.60
2017-08-13T06:43:18.616Z,78.60
2017-08-13T06:45:46.904Z,78.10
2017-08-13T06:48:14.435Z,78.00
2017-08-13T06:50:42.878Z,78.10
2017-08-13T06:53:10.408Z,74.60
2017-08-13T06:55:38.063Z,72.60
2017-08-13T06:58:06.371Z,69.30
2017-08-13T07:00:35.699Z,68.00
2017-08-13T07:03:03.233Z,67.70
2017-08-13T07:05:30.751Z,65.00
2017-08-13T07:07:59.046Z,60.00
2017-08-13T07:10:26.587Z,60.50
2017-08-13T07:12:54.893Z,60.30
2017-08-13T07:15:22.410Z,60.30
2017-08-13T07:17:49.922Z,61.10
2017-08-13T07:20:17.460Z,60.60
2017-08-13T07:22:44.967Z,58.50
2017-08-13T07:25:12.497Z,58.30
2017-08-13T07:27:40.005Z,60.80
2017-08-13T07:30:07.543Z,61.20
2017-08-13T07:32:35.072Z,62.50
2017-08-13T07:35:02.607Z,61.50
2017-08-13T07:37:30.137Z,60.30
2017-08-13T07:39:57.660Z,59.80
2017-08-13T07:42:25.176Z,58.60
2017-08-13T07:44:53.530Z,58.10
2017-08-13T07:47:21.043Z,58.10
2017-08-13T07:49:48.562Z,57.20
2017-08-13T07:52:16.105Z,56.40
2017-08-13T07:54:43.632Z,56.30
2017-08-13T07:57:11.188Z,56.40
2017-08-13T07:59:38.708Z,57.70
2017-08-13T08:02:06.277Z,55.70
2017-08-13T08:04:33.844Z,51.70
2017-08-13T08:07:01.404Z,49.10
2017-08-13T08:09:28.917Z,46.10
2017-08-13T08:11:56.433Z,47.50
2017-08-13T08:14:23.985Z,47.20
2017-08-13T08:16:51.668Z,46.40
2017-08-13T08:19:19.524Z,47.10
2017-08-13T08:21:47.044Z,48.10
2017-08-13T08:24:15.340Z,46.50
2017-08-13T08:26:43.149Z,46.10
2017-08-13T08:29:10.761Z,42.80
2017-08-13T08:31:38.289Z,39.60
2017-08-13T08:34:05.796Z,39.50
2017-08-13T08:36:33.323Z,38.20
2017-08-13T08:39:01.662Z,41.00
2017-08-13T08:41:29.193Z,40.80
2017-08-13T08:43:56.712Z,40.00
2017-08-13T08:46:25.009Z,39.60
2017-08-13T08:48:52.532Z,39.50
2017-08-13T08:51:20.081Z,40.70
2017-08-13T08:53:47.608Z,42.20
2017-08-13T08:56:15.120Z,40.40
2017-08-13T08:58:43.421Z,39.90
2017-08-13T09:01:10.948Z,39.80
2017-08-13T09:03:38.483Z,38.40
2017-08-13T09:06:06.009Z,38.70
2017-08-13T09:08:33.669Z,39.50
2017-08-13T09:11:01.238Z,40.50
2017-08-13T09:13:29.057Z,40.90
2017-08-13T09:15:56.576Z,39.80
2017-08-13T09:18:24.172Z,41.80
2017-08-13T09:20:51.741Z,38.80
2017-08-13T09:23:20.019Z,34.20
2017-08-13T09:25:48.324Z,34.40
2017-08-13T09:28:15.854Z,34.30
2017-08-13T09:30:44.157Z,36.40
2017-08-13T09:33:11.672Z,36.40
2017-08-13T09:35:39.226Z,34.50
2017-08-13T09:38:06.756Z,38.50
2017-08-13T09:40:34.291Z,41.40
2017-08-13T09:43:01.948Z,41.50
2017-08-13T09:45:29.467Z,40.50
2017-08-13T09:47:57.766Z,44.60
2017-08-13T09:50:25.302Z,44.00
2017-08-13T09:52:52.837Z,39.40
2017-08-13T09:55:20.373Z,36.90
2017-08-13T09:57:47.921Z,38.00
2017-08-13T10:00:15.448Z,38.60
2017-08-13T10:02:43.724Z,41.70
2017-08-13T10:05:12.020Z,42.30
2017-08-13T10:07:39.549Z,42.30
2017-08-13T10:10:07.077Z,41.50
2017-08-13T10:12:34.585Z,39.90
2017-08-13T10:15:02.127Z,38.00
2017-08-13T10:17:29.634Z,39.30
2017-08-13T10:19:57.147Z,38.40
2017-08-13T10:22:25.448Z,37.80
2017-08-13T10:24:52.998Z,37.60
2017-08-13T10:27:20.536Z,38.40
2017-08-13T10:29:48.068Z,37.40
2017-08-13T10:32:15.570Z,36.30
2017-08-13T10:34:43.864Z,35.60
2017-08-13T10:37:11.408Z,35.60
2017-08-13T10:39:38.920Z,35.70
2017-08-13T10:42:06.454Z,34.70
2017-08-13T10:44:33.999Z,38.30
2017-08-13T10:47:01.542Z,37.20
2017-08-13T10:49:29.053Z,38.50
2017-08-13T10:51:56.581Z,37.40
2017-08-13T10:54:24.097Z,41.50
2017-08-13T10:56:52.404Z,42.00
2017-08-13T10:59:19.956Z,41.90
2017-08-13T11:01:47.502Z,37.50
2017-08-13T11:04:15.792Z,33.90
2017-08-13T11:06:43.332Z,33.90
2017-08-13T11:09:11.605Z,32.50
2017-08-13T11:11:39.913Z,34.80
2017-08-13T11:14:07.413Z,34.20
2017-08-13T11:16:34.944Z,31.30
2017-08-13T11:19:02.456Z,30.50
2017-08-13T11:21:29.990Z,31.10
2017-08-13T11:23:57.495Z,31.00
2017-08-13T11:26:25.044Z,29.70
2017-08-13T11:28:53.324Z,31.30
2017-08-13T11:31:21.624Z,29.60
2017-08-13T11:33:49.129Z,29.60
2017-08-13T11:36:16.677Z,27.80
2017-08-13T11:38:44.216Z,27.10
2017-08-13T11:41:11.737Z,26.90
2017-08-13T11:43:40.029Z,29.70
2017-08-13T11:46:07.549Z,29.70
2017-08-13T11:48:35.134Z,33.50
2017-08-13T11:51:03.805Z,35.30
2017-08-13T11:53:31.354Z,36.20
2017-08-13T11:55:58.886Z,36.20
2017-08-13T11:58:26.413Z,35.20
2017-08-13T12:00:53.982Z,35.50
2017-08-13T12:03:21.524Z,35.80
2017-08-13T12:05:49.079Z,34.90
2017-08-13T12:08:16.620Z,35.20
2017-08-13T12:10:44.896Z,39.00
2017-08-13T12:13:14.749Z,39.50
2017-08-13T12:15:42.248Z,39.40
2017-08-13T12:18:09.772Z,40.60
2017-08-13T12:20:37.434Z,38.80
2017-08-13T12:23:04.969Z,40.30
2017-08-13T12:25:32.489Z,40.80
2017-08-13T12:28:00.127Z,40.20
2017-08-13T12:30:27.904Z,40.90
2017-08-13T12:32:56.225Z,43.10
2017-08-13T12:35:23.769Z,43.10
2017-08-13T12:37:52.044Z,44.20
2017-08-13T12:40:20.347Z,44.40
2017-08-13T12:42:48.233Z,44.30
2017-08-13T12:45:15.760Z,44.70
2017-08-13T12:47:44.037Z,43.20
2017-08-13T12:50:11.577Z,43.20
2017-08-13T12:52:39.089Z,43.20
2017-08-13T12:55:06.667Z,42.80
2017-08-13T12:57:35.079Z,40.80
2017-08-13T13:00:02.617Z,40.80
2017-08-13T13:02:30.145Z,38.70
2017-08-13T13:04:57.686Z,42.40
2017-08-13T13:07:25.220Z,42.40
2017-08-13T13:09:53.498Z,41.30
2017-08-13T13:12:21.805Z,41.90
2017-08-13T13:14:49.316Z,41.80
2017-08-13T13:17:17.617Z,42.40
2017-08-13T13:19:45.134Z,42.40
2017-08-13T13:22:12.687Z,40.90
2017-08-13T13:24:41.015Z,41.80
2017-08-13T13:27:08.524Z,41.90
2017-08-13T13:29:36.065Z,43.00
2017-08-13T13:32:03.599Z,45.10
2017-08-13T13:34:31.140Z,46.30
2017-08-13T13:36:58.671Z,48.20
2017-08-13T13:39:26.247Z,48.40
2017-08-13T13:41:53.780Z,50.50
2017-08-13T13:44:21.354Z,51.00
2017-08-13T13:46:48.868Z,46.90
2017-08-13T13:49:16.408Z,47.80
2017-08-13T13:51:43.926Z,42.50
2017-08-13T13:54:11.477Z,43.20
2017-08-13T13:56:39.000Z,40.60
2017-08-13T13:59:06.512Z,39.70
2017-08-13T14:01:34.842Z,41.50
2017-08-13T14:04:03.368Z,41.50
2017-08-13T14:06:31.687Z,42.80
2017-08-13T14:08:59.205Z,42.80
2017-08-13T14:11:27.502Z,44.60
2017-08-13T14:13:55.011Z,44.60
2017-08-13T14:16:22.548Z,45.10
2017-08-13T14:18:50.125Z,43.10
2017-08-13T14:21:17.673Z,40.50
2017-08-13T14:23:45.189Z,40.00
2017-08-13T14:26:13.503Z,38.60
2017-08-13T14:28:41.488Z,38.40
2017-08-13T14:31:09.005Z,40.40
2017-08-13T14:33:36.545Z,42.00
2017-08-13T14:36:04.831Z,42.90
2017-08-13T14:38:32.366Z,42.80
2017-08-13T14:41:00.653Z,42.30
2017-08-13T14:43:28.977Z,40.90
2017-08-13T14:45:56.485Z,40.90
2017-08-13T14:48:24.794Z,40.80
2017-08-13T14:50:52.304Z,40.80
2017-08-13T14:53:19.832Z,42.00
2017-08-13T14:55:47.766Z,42.90
2017-08-13T14:58:15.297Z,43.80
2017-08-13T15:00:43.590Z,45.90
2017-08-13T15:03:11.960Z,43.60
2017-08-13T15:05:40.533Z,44.80
2017-08-13T15:08:08.829Z,44.80
2017-08-13T15:10:37.130Z,45.70
2017-08-13T15:13:04.675Z,45.70
2017-08-13T15:15:32.196Z,48.10
2017-08-13T15:17:59.738Z,49.30
2017-08-13T15:20:27.269Z,50.10
2017-08-13T15:22:54.809Z,49.20
2017-08-13T15:25:22.494Z,50.10
2017-08-13T15:27:50.035Z,48.30
2017-08-13T15:30:17.580Z,49.70
2017-08-13T15:32:45.856Z,58.00
2017-08-13T15:35:14.176Z,57.20
2017-08-13T15:37:41.760Z,57.20
2017-08-13T15:40:09.309Z,56.30
2017-08-13T15:42:36.819Z,66.30
2017-08-13T15:45:05.272Z,71.70
2017-08-13T15:47:35.841Z,73.00
2017-08-13T15:50:03.370Z,67.70
2017-08-13T15:52:30.945Z,64.90
2017-08-13T15:54:58.473Z,62.70
2017-08-13T15:57:26.017Z,70.50
2017-08-13T15:59:53.567Z,69.60
2017-08-13T16:02:21.116Z,67.70
2017-08-13T16:04:48.690Z,63.80
2017-08-13T16:07:16.228Z,59.70
2017-08-13T16:09:43.738Z,61.80
2017-08-13T16:12:11.275Z,60.60
2017-08-13T16:14:38.794Z,57.20
2017-08-13T16:17:10.118Z,54.70
2017-08-13T16:19:37.642Z,54.10
2017-08-13T16:22:05.187Z,56.50
2017-08-13T16:24:32.694Z,55.10
2017-08-13T16:27:00.224Z,55.10
2017-08-13T16:29:27.760Z,55.50
2017-08-13T16:31:55.265Z,54.90
2017-08-13T16:34:22.881Z,53.30
2017-08-13T16:36:50.435Z,54.60
2017-08-13T16:39:17.958Z,55.60
2017-08-13T16:41:45.470Z,56.90
2017-08-13T16:44:13.007Z,55.90
2017-08-13T16:46:40.531Z,55.00
2017-08-13T16:49:08.070Z,57.30
2017-08-13T16:51:35.577Z,56.10
2017-08-13T16:54:03.110Z,53.90
2017-08-13T16:56:30.633Z,54.20
2017-08-13T16:58:58.146Z,55.20
2017-08-13T17:01:25.678Z,54.50
2017-08-13T17:03:53.195Z,53.20
2017-08-13T17:06:20.733Z,53.70
2017-08-13T17:08:48.300Z,52.60
2017-08-13T17:11:15.847Z,53.90
2017-08-13T17:13:43.357Z,55.70
2017-08-13T17:16:11.694Z,55.80
2017-08-13T17:18:39.213Z,55.80
2017-08-13T17:21:06.746Z,56.00
2017-08-13T17:23:35.033Z,57.80
2017-08-13T17:26:03.330Z,58.10
2017-08-13T17:28:30.852Z,58.20
2017-08-13T17:30:59.132Z,60.10
2017-08-13T17:33:27.453Z,60.40
2017-08-13T17:35:54.973Z,60.20
2017-08-13T17:38:26.456Z,62.80
2017-08-13T17:40:53.966Z,62.80
2017-08-13T17:43:21.501Z,61.80
2017-08-13T17:45:49.019Z,63.00
2017-08-13T17:48:16.556Z,64.00
2017-08-13T17:50:44.844Z,67.10
2017-08-13T17:53:12.392Z,67.00
2017-08-13T17:55:39.911Z,69.40
2017-08-13T17:58:07.446Z,69.20
2017-08-13T18:00:34.965Z,68.50
2017-08-13T18:03:03.624Z,70.80
2017-08-13T18:05:31.138Z,70.80
2017-08-13T18:07:58.654Z,71.70
2017-08-13T18:10:26.192Z,72.70
2017-08-13T18:12:53.707Z,72.90
2017-08-13T18:15:21.260Z,73.20
2017-08-13T18:17:48.784Z,72.10
2017-08-13T18:20:16.432Z,72.70
2017-08-13T18:22:43.952Z,73.20
2017-08-13T18:25:11.540Z,75.00
2017-08-13T18:27:39.077Z,75.00
2017-08-13T18:30:07.433Z,76.00
2017-08-13T18:32:34.949Z,75.60
2017-08-13T18:35:02.494Z,76.30
2017-08-13T18:37:30.018Z,76.90
2017-08-13T18:39:57.667Z,78.50
2017-08-13T18:42:25.204Z,78.60
2017-08-13T18:44:53.488Z,79.60
2017-08-13T18:47:21.792Z,80.90
2017-08-13T18:49:49.306Z,80.80
2017-08-13T18:52:16.850Z,81.60
2017-08-13T18:54:44.369Z,82.10
2017-08-13T18:57:11.917Z,83.10
2017-08-13T18:59:39.433Z,83.00
2017-08-13T19:02:07.073Z,83.30
2017-08-13T19:04:34.621Z,84.10
2017-08-13T19:07:02.163Z,84.90
2017-08-13T19:09:30.527Z,84.80
2017-08-13T19:11:58.081Z,84.50
2017-08-13T19:14:26.360Z,84.70
2017-08-13T19:16:54.706Z,85.20
2017-08-13T19:19:22.247Z,85.20
2017-08-13T19:21:49.882Z,86.30
2017-08-13T19:24:17.499Z,86.80
2017-08-13T19:26:45.136Z,87.60
2017-08-13T19:29:12.774Z,88.50
2017-08-13T19:31:40.408Z,89.00
2017-08-13T19:34:08.049Z,89.50
2017-08-13T19:36:35.679Z,89.60
2017-08-13T19:39:04.142Z,89.00
2017-08-13T19:41:31.665Z,89.40
2017-08-13T19:43:59.249Z,89.60
2017-08-13T19:46:26.764Z,90.00
2017-08-13T19:48:54.377Z,90.40
2017-08-13T19:51:21.900Z,90.50
2017-08-13T19:53:49.515Z,90.50
2017-08-13T19:56:17.057Z,90.80
2017-08-13T19:58:44.586Z,91.10
2017-08-13T20:01:12.228Z,91.20
2017-08-13T20:03:39.792Z,91.20
2017-08-13T20:06:08.100Z,91.50
2017-08-13T20:08:35.611Z,91.50
2017-08-13T20:11:03.152Z,91.60
2017-08-13T20:13:30.701Z,91.70
2017-08-13T20:15:58.251Z,91.80
2017-08-13T20:18:25.758Z,91.80
2017-08-13T20:20:54.064Z,92.00
2017-08-13T20:23:21.582Z,91.90
2017-08-13T20:25:49.098Z,91.90
2017-08-13T20:28:16.638Z,92.10
2017-08-13T20:30:44.156Z,92.30
2017-08-13T20:33:11.698Z,92.50
2017-08-13T20:35:39.208Z,92.60
2017-08-13T20:38:06.749Z,92.60
2017-08-13T20:40:35.032Z,92.60
2017-08-13T20:43:03.337Z,92.60
2017-08-13T20:45:30.883Z,92.60
2017-08-13T20:47:58.425Z,92.70
2017-08-13T20:50:25.961Z,92.80
2017-08-13T20:52:53.483Z,92.80
2017-08-13T20:55:21.029Z,92.90
2017-08-13T20:57:48.560Z,92.90
2017-08-13T21:00:16.097Z,93.00
2017-08-13T21:02:44.471Z,93.20
2017-08-13T21:05:12.030Z,93.20
2017-08-13T21:07:39.563Z,93.30
2017-08-13T21:10:07.173Z,93.40
2017-08-13T21:12:34.755Z,93.50
2017-08-13T21:15:02.352Z,93.60
2017-08-13T21:17:29.874Z,93.60
2017-08-13T21:19:57.412Z,93.70
2017-08-13T21:22:24.937Z,93.70
2017-08-13T21:24:52.518Z,93.70
2017-08-13T21:27:21.003Z,93.70
2017-08-13T21:29:49.414Z,93.80
2017-08-13T21:32:17.016Z,93.80
2017-08-13T21:34:44.548Z,93.80
2017-08-13T21:37:12.097Z,93.90
2017-08-13T21:39:39.620Z,93.90
2017-08-13T21:42:07.924Z,94.00
2017-08-13T21:44:35.496Z,94.00
2017-08-13T21:47:03.049Z,94.00
2017-08-13T21:49:30.567Z,94.10
2017-08-13T21:51:58.096Z,94.00
2017-08-13T21:54:25.613Z,94.10
2017-08-13T21:56:53.241Z,94.00
2017-08-13T21:59:20.741Z,94.10
2017-08-13T22:01:48.281Z,94.20
2017-08-13T22:04:15.789Z,94.20
2017-08-13T22:06:43.307Z,94.30
2017-08-13T22:09:10.841Z,94.30
2017-08-13T22:11:39.123Z,94.40
2017-08-13T22:14:06.656Z,94.30
2017-08-13T22:16:34.171Z,94.50
2017-08-13T22:19:01.710Z,94.80
2017-08-13T22:21:29.222Z,94.40
2017-08-13T22:23:56.766Z,94.50
2017-08-13T22:26:24.294Z,94.40
2017-08-13T22:28:51.842Z,94.40
2017-08-13T22:31:19.366Z,94.30
2017-08-13T22:33:46.895Z,94.20
2017-08-13T22:36:14.408Z,94.10
2017-08-13T22:38:42.708Z,94.00
2017-08-13T22:41:10.237Z,94.00
2017-08-13T22:43:38.519Z,94.30
2017-08-13T22:46:06.063Z,93.90
2017-08-13T22:48:33.584Z,93.90
2017-08-13T22:51:01.127Z,94.00
2017-08-13T22:53:28.665Z,93.90
2017-08-13T22:55:56.213Z,93.90
2017-08-13T22:58:24.495Z,94.00
2017-08-13T23:00:52.046Z,94.00
2017-08-13T23:03:20.343Z,94.10
2017-08-13T23:05:47.901Z,94.00
2017-08-13T23:08:15.421Z,94.00
2017-08-13T23:10:43.715Z,94.30
2017-08-13T23:13:11.259Z,94.00
2017-08-13T23:15:38.776Z,94.00
2017-08-13T23:18:06.338Z,94.00
2017-08-13T23:20:33.865Z,94.00
2017-08-13T23:23:01.407Z,94.00
2017-08-13T23:25:29.705Z,94.10
2017-08-13T23:27:57.243Z,94.10
2017-08-13T23:30:24.774Z,94.10
2017-08-13T23:32:52.302Z,94.10
2017-08-13T23:35:19.852Z,94.00
2017-08-13T23:37:47.371Z,94.00
2017-08-13T23:40:15.681Z,94.30
2017-08-13T23:42:43.209Z,94.10
2017-08-13T23:45:11.517Z,94.10
2017-08-13T23:47:39.045Z,94.00
2017-08-13T23:50:06.590Z,94.10
2017-08-13T23:52:34.125Z,94.10
2017-08-13T23:55:01.673Z,94.10
2017-08-13T23:57:29.188Z,94.00
2017-08-13T23:59:56.719Z,94.00
